createdAt,value
2019-02-02T00:00:44.379Z,13.30
2019-02-02T00:03:16.229Z,12.88
2019-02-02T00:05:48.023Z,12.73
2019-02-02T00:08:19.738Z,13.20
2019-02-02T00:10:51.656Z,13.63
2019-02-02T00:13:23.515Z,13.35
2019-02-02T00:15:55.373Z,12.70
2019-02-02T00:18:27.182Z,12.43
2019-02-02T00:20:58.981Z,12.30
2019-02-02T00:23:30.845Z,12.30
2019-02-02T00:26:02.723Z,12.63
2019-02-02T00:28:34.759Z,11.80
2019-02-02T00:31:07.613Z,13.03
2019-02-02T00:33:39.654Z,13.50
2019-02-02T00:36:11.530Z,13.43
2019-02-02T00:38:43.250Z,13.63
2019-02-02T00:41:14.967Z,12.97
2019-02-02T00:43:46.749Z,13.63
2019-02-02T00:46:18.471Z,13.10
2019-02-02T00:48:50.182Z,12.87
2019-02-02T00:51:21.968Z,12.75
2019-02-02T00:53:53.762Z,13.73
2019-02-02T00:56:25.537Z,14.43
2019-02-02T00:58:57.245Z,12.83
2019-02-02T01:01:29.115Z,14.07
2019-02-02T01:04:00.832Z,14.30
2019-02-02T01:06:32.697Z,12.80
2019-02-02T01:09:09.960Z,13.67
2019-02-02T01:11:42.050Z,13.53
2019-02-02T01:14:13.912Z,13.40
2019-02-02T01:16:45.646Z,14.00
2019-02-02T01:19:18.404Z,13.55
2019-02-02T01:21:50.284Z,13.23
2019-02-02T01:24:22.085Z,13.20
2019-02-02T01:26:54.071Z,14.13
2019-02-02T01:29:25.829Z,13.48
2019-02-02T01:31:57.576Z,14.20
2019-02-02T01:34:29.361Z,14.43
2019-02-02T01:37:01.252Z,14.07
2019-02-02T01:39:32.968Z,15.13
2019-02-02T01:42:04.922Z,14.70
2019-02-02T01:44:36.723Z,12.97
2019-02-02T01:47:08.532Z,13.20
2019-02-02T01:49:40.318Z,13.53
2019-02-02T01:52:12.188Z,12.90
2019-02-02T01:54:44.072Z,14.03
2019-02-02T01:57:15.809Z,13.13
2019-02-02T01:59:47.555Z,12.97
2019-02-02T02:02:20.260Z,13.62
2019-02-02T02:04:51.983Z,13.80
2019-02-02T02:07:23.721Z,14.15
2019-02-02T02:09:55.460Z,14.03
2019-02-02T02:12:27.185Z,14.15
2019-02-02T02:14:59.075Z,13.10
2019-02-02T02:17:30.805Z,12.50
2019-02-02T02:20:02.604Z,13.73
2019-02-02T02:22:40.822Z,13.23
2019-02-02T02:25:11.879Z,13.40
2019-02-02T02:27:43.936Z,13.60
2019-02-02T02:30:18.804Z,13.13
2019-02-02T02:32:51.101Z,13.63
2019-02-02T02:35:23.048Z,14.07
2019-02-02T02:37:54.924Z,15.03
2019-02-02T02:40:26.873Z,14.50
2019-02-02T02:42:58.802Z,14.43
2019-02-02T02:45:30.617Z,13.83
2019-02-02T02:48:02.547Z,14.10
2019-02-02T02:50:34.272Z,14.37
2019-02-02T02:53:06.288Z,13.90
2019-02-02T02:55:37.976Z,14.43
2019-02-02T02:58:09.842Z,14.53
2019-02-02T03:00:41.767Z,13.17
2019-02-02T03:03:13.751Z,15.10
2019-02-02T03:05:45.542Z,15.07
2019-02-02T03:08:17.434Z,14.43
2019-02-02T03:10:49.244Z,14.67
2019-02-02T03:13:21.224Z,15.40
2019-02-02T03:15:53.053Z,15.37
2019-02-02T03:18:24.848Z,14.23
2019-02-02T03:20:56.568Z,14.80
2019-02-02T03:23:28.290Z,14.67
2019-02-02T03:26:00.093Z,15.30
2019-02-02T03:28:31.835Z,15.37
2019-02-02T03:31:03.774Z,15.30
2019-02-02T03:33:35.583Z,14.37
2019-02-02T03:36:07.473Z,15.10
2019-02-02T03:38:39.364Z,15.07
2019-02-02T03:41:11.399Z,14.57
2019-02-02T03:43:43.284Z,15.60
2019-02-02T03:46:15.238Z,15.40
2019-02-02T03:48:47.061Z,15.25
2019-02-02T03:51:18.897Z,14.85
2019-02-02T03:53:50.802Z,14.80
2019-02-02T03:56:22.531Z,15.30
2019-02-02T03:59:06.201Z,15.50
2019-02-02T04:01:30.058Z,14.47
2019-02-02T04:04:02.672Z,15.13
2019-02-02T04:06:34.794Z,15.30
2019-02-02T04:09:08.718Z,15.23
2019-02-02T04:11:43.430Z,16.47
2019-02-02T04:14:14.203Z,16.33
2019-02-02T04:16:46.075Z,15.37
2019-02-02T04:19:17.828Z,15.90
2019-02-02T04:21:49.560Z,16.93
2019-02-02T04:24:21.455Z,15.83
2019-02-02T04:26:53.193Z,16.67
2019-02-02T04:29:24.996Z,17.10
2019-02-02T04:31:56.894Z,15.67
2019-02-02T04:34:28.712Z,16.12
2019-02-02T04:37:00.463Z,16.17
2019-02-02T04:39:32.308Z,14.70
2019-02-02T04:42:04.082Z,16.27
2019-02-02T04:44:35.836Z,15.10
2019-02-02T04:47:07.726Z,15.43
2019-02-02T04:49:39.792Z,16.87
2019-02-02T04:52:11.666Z,16.30
2019-02-02T04:54:43.484Z,18.70
2019-02-02T04:57:15.221Z,17.83
2019-02-02T04:59:47.212Z,22.17
2019-02-02T05:02:19.338Z,21.43
2019-02-02T05:04:51.126Z,18.60
2019-02-02T05:07:22.863Z,20.43
2019-02-02T05:09:54.700Z,19.20
2019-02-02T05:12:26.758Z,19.07
2019-02-02T05:14:58.484Z,20.27
2019-02-02T05:17:30.342Z,18.87
2019-02-02T05:20:02.259Z,19.63
2019-02-02T05:22:34.023Z,19.03
2019-02-02T05:25:07.424Z,19.10
2019-02-02T05:27:39.305Z,18.23
2019-02-02T05:30:19.197Z,17.25
2019-02-02T05:32:51.017Z,17.15
2019-02-02T05:35:23.067Z,15.48
2019-02-02T05:37:54.881Z,15.37
2019-02-02T05:40:26.850Z,14.73
2019-02-02T05:42:58.732Z,14.73
2019-02-02T05:45:30.625Z,14.28
2019-02-02T05:48:02.562Z,15.60
2019-02-02T05:50:34.366Z,15.70
2019-02-02T05:53:06.186Z,16.43
2019-02-02T05:55:38.057Z,16.67
2019-02-02T05:58:09.875Z,16.07
2019-02-02T06:00:53.396Z,15.97
2019-02-02T06:03:25.290Z,14.80
2019-02-02T06:05:57.156Z,14.87
2019-02-02T06:08:28.968Z,15.13
2019-02-02T06:11:00.860Z,14.60
2019-02-02T06:13:33.067Z,14.40
2019-02-02T06:16:05.050Z,15.50
2019-02-02T06:18:36.864Z,16.63
2019-02-02T06:21:09.560Z,15.57
2019-02-02T06:23:41.392Z,17.27
2019-02-02T06:26:13.189Z,16.82
2019-02-02T06:28:44.928Z,15.40
2019-02-02T06:31:16.756Z,16.40
2019-02-02T06:33:48.492Z,16.40
2019-02-02T06:36:20.288Z,15.83
2019-02-02T06:38:52.300Z,17.20
2019-02-02T06:41:24.240Z,16.65
2019-02-02T06:43:55.982Z,17.52
2019-02-02T06:46:28.004Z,17.52
2019-02-02T06:49:01.578Z,17.83
2019-02-02T06:51:33.490Z,19.30
2019-02-02T06:54:05.784Z,17.63
2019-02-02T06:56:37.594Z,17.57
2019-02-02T06:59:09.519Z,18.13
2019-02-02T07:01:41.471Z,17.50
2019-02-02T07:04:13.311Z,14.47
2019-02-02T07:06:45.112Z,13.93
2019-02-02T07:09:16.926Z,15.13
2019-02-02T07:11:48.786Z,15.63
2019-02-02T07:14:21.728Z,14.80
2019-02-02T07:16:53.530Z,14.20
2019-02-02T07:19:25.518Z,14.58
2019-02-02T07:21:57.508Z,15.40
2019-02-02T07:24:29.344Z,15.40
2019-02-02T07:27:01.248Z,16.10
2019-02-02T07:29:33.436Z,14.67
2019-02-02T07:32:05.458Z,16.73
2019-02-02T07:34:37.199Z,17.17
2019-02-02T07:37:08.916Z,16.82
2019-02-02T07:39:40.979Z,16.53
2019-02-02T07:42:12.704Z,15.97
2019-02-02T07:44:44.521Z,16.83
2019-02-02T07:47:16.408Z,18.00
2019-02-02T07:49:48.465Z,18.05
2019-02-02T07:52:20.340Z,17.57
2019-02-02T07:54:52.158Z,17.43
2019-02-02T07:57:23.967Z,17.37
2019-02-02T07:59:55.895Z,19.90
2019-02-02T08:02:27.783Z,18.27
2019-02-02T08:04:59.562Z,18.73
2019-02-02T08:07:31.265Z,17.53
2019-02-02T08:10:03.164Z,17.93
2019-02-02T08:12:34.979Z,19.23
2019-02-02T08:15:09.417Z,18.13
2019-02-02T08:17:41.386Z,15.90
2019-02-02T08:20:13.789Z,16.30
2019-02-02T08:22:45.759Z,16.47
2019-02-02T08:25:17.991Z,17.12
2019-02-02T08:27:50.007Z,16.87
2019-02-02T08:30:35.556Z,15.43
2019-02-02T08:33:07.433Z,18.10
2019-02-02T08:35:39.316Z,19.00
2019-02-02T08:38:11.497Z,17.20
2019-02-02T08:40:43.441Z,17.03
2019-02-02T08:43:15.317Z,17.13
2019-02-02T08:45:47.146Z,17.27
2019-02-02T08:48:18.914Z,18.77
2019-02-02T08:50:50.729Z,18.20
2019-02-02T08:53:22.530Z,17.90
2019-02-02T08:55:54.348Z,19.07
2019-02-02T08:58:26.240Z,19.27
2019-02-02T09:01:04.091Z,18.97
2019-02-02T09:03:31.992Z,18.90
2019-02-02T09:06:04.277Z,18.47
2019-02-02T09:08:36.287Z,19.80
2019-02-02T09:11:08.078Z,19.03
2019-02-02T09:13:39.816Z,18.80
2019-02-02T09:16:11.934Z,19.60
2019-02-02T09:18:43.666Z,19.97
2019-02-02T09:21:16.533Z,19.00
2019-02-02T09:23:48.400Z,19.33
2019-02-02T09:26:20.140Z,19.43
2019-02-02T09:28:51.983Z,18.90
2019-02-02T09:31:23.710Z,18.07
2019-02-02T09:33:55.601Z,20.33
2019-02-02T09:36:27.494Z,21.30
2019-02-02T09:38:59.387Z,20.47
2019-02-02T09:41:31.120Z,21.10
2019-02-02T09:44:03.036Z,20.73
2019-02-02T09:46:34.776Z,20.87
2019-02-02T09:49:06.691Z,20.73
2019-02-02T09:51:38.583Z,20.93
2019-02-02T09:54:10.332Z,23.47
2019-02-02T09:56:42.155Z,23.77
2019-02-02T09:59:14.144Z,21.93
2019-02-02T10:01:46.038Z,22.47
2019-02-02T10:04:18.036Z,19.53
2019-02-02T10:06:49.784Z,21.43
2019-02-02T10:09:21.661Z,22.50
2019-02-02T10:11:53.766Z,21.90
2019-02-02T10:14:25.505Z,22.27
2019-02-02T10:16:57.332Z,20.57
2019-02-02T10:19:29.143Z,20.95
2019-02-02T10:22:01.198Z,22.80
2019-02-02T10:24:33.290Z,19.63
2019-02-02T10:27:05.268Z,20.90
2019-02-02T10:29:37.080Z,20.67
2019-02-02T10:32:08.945Z,22.65
2019-02-02T10:34:40.837Z,22.83
2019-02-02T10:37:12.748Z,22.60
2019-02-02T10:39:44.487Z,21.03
2019-02-02T10:42:16.499Z,22.00
2019-02-02T10:44:48.352Z,20.63
2019-02-02T10:47:20.122Z,21.23
2019-02-02T10:49:52.166Z,19.40
2019-02-02T10:52:23.979Z,19.63
2019-02-02T10:54:55.875Z,20.73
2019-02-02T10:57:27.774Z,20.20
2019-02-02T10:59:59.676Z,19.43
2019-02-02T11:02:31.695Z,19.03
2019-02-02T11:05:04.193Z,19.03
2019-02-02T11:07:36.468Z,19.87
2019-02-02T11:10:11.769Z,18.80
2019-02-02T11:12:43.947Z,17.13
2019-02-02T11:15:17.112Z,18.57
2019-02-02T11:17:49.356Z,18.47
2019-02-02T11:20:24.445Z,16.17
2019-02-02T11:22:56.570Z,16.30
2019-02-02T11:25:29.984Z,17.55
2019-02-02T11:28:02.480Z,16.13
2019-02-02T11:30:34.827Z,15.50
2019-02-02T11:33:07.857Z,14.70
2019-02-02T11:35:39.881Z,14.40
2019-02-02T11:38:11.765Z,13.40
2019-02-02T11:40:43.583Z,15.83
2019-02-02T11:43:15.537Z,16.93
2019-02-02T11:45:47.281Z,13.87
2019-02-02T11:48:19.523Z,14.95
2019-02-02T11:50:51.559Z,13.47
2019-02-02T11:53:23.549Z,13.43
2019-02-02T11:55:55.462Z,12.83
2019-02-02T11:58:27.190Z,12.90
2019-02-02T12:01:00.277Z,11.60
2019-02-02T12:03:32.386Z,12.27
2019-02-02T12:06:04.387Z,11.47
2019-02-02T12:08:37.450Z,12.93
2019-02-02T12:11:10.427Z,10.40
2019-02-02T12:13:42.413Z,10.47
2019-02-02T12:16:14.909Z,9.93
2019-02-02T12:18:46.826Z,10.20
2019-02-02T12:21:19.282Z,9.57
2019-02-02T12:23:51.417Z,10.43
2019-02-02T12:26:23.322Z,7.43
2019-02-02T12:28:55.136Z,7.60
2019-02-02T12:31:27.149Z,8.67
2019-02-02T12:33:58.980Z,8.50
2019-02-02T12:36:31.063Z,9.33
2019-02-02T12:39:04.741Z,8.65
2019-02-02T12:41:36.949Z,8.33
2019-02-02T12:44:08.926Z,10.23
2019-02-02T12:46:40.866Z,10.80
2019-02-02T12:49:12.641Z,13.63
2019-02-02T12:51:44.615Z,10.30
2019-02-02T12:54:16.646Z,16.03
2019-02-02T12:56:48.468Z,10.60
2019-02-02T12:59:20.378Z,8.50
2019-02-02T13:01:52.565Z,8.43
2019-02-02T13:04:24.739Z,9.25
2019-02-02T13:06:56.984Z,17.30
2019-02-02T13:09:29.056Z,8.45
2019-02-02T13:12:01.233Z,8.73
2019-02-02T13:14:33.910Z,8.40
2019-02-02T13:17:06.467Z,7.87
2019-02-02T13:19:38.294Z,8.57
2019-02-02T13:22:10.487Z,9.77
2019-02-02T13:24:45.278Z,8.48
2019-02-02T13:27:16.877Z,9.18
2019-02-02T13:29:49.023Z,8.60
2019-02-02T13:32:22.512Z,8.17
2019-02-02T13:34:56.553Z,11.10
2019-02-02T13:37:30.217Z,9.45
2019-02-02T13:40:03.770Z,9.03
2019-02-02T13:42:35.917Z,9.17
2019-02-02T13:45:08.595Z,8.77
2019-02-02T13:47:41.272Z,10.03
2019-02-02T13:50:15.609Z,10.67
2019-02-02T13:52:48.479Z,9.50
2019-02-02T13:55:22.454Z,9.10
2019-02-02T13:57:54.566Z,8.70
2019-02-02T14:00:29.663Z,7.63
2019-02-02T14:03:03.461Z,9.00
2019-02-02T14:05:35.595Z,9.17
2019-02-02T14:08:07.897Z,7.70
2019-02-02T14:10:39.801Z,9.13
2019-02-02T14:13:13.074Z,9.40
2019-02-02T14:15:45.069Z,9.10
2019-02-02T14:18:17.077Z,9.53
2019-02-02T14:20:48.980Z,9.53
2019-02-02T14:23:21.029Z,9.98
2019-02-02T14:25:53.115Z,9.87
2019-02-02T14:28:28.575Z,10.20
2019-02-02T14:30:59.132Z,11.00
2019-02-02T14:33:30.878Z,10.60
2019-02-02T14:36:02.703Z,10.43
2019-02-02T14:38:34.771Z,11.40
2019-02-02T14:41:06.827Z,9.80
2019-02-02T14:43:38.684Z,9.43
2019-02-02T14:46:11.760Z,10.48
2019-02-02T14:48:43.576Z,10.13
2019-02-02T14:51:15.538Z,10.87
2019-02-02T14:53:47.294Z,9.13
2019-02-02T14:56:19.237Z,9.73
2019-02-02T14:58:51.062Z,11.23
2019-02-02T15:01:23.002Z,11.43
2019-02-02T15:03:54.902Z,10.60
2019-02-02T15:06:26.776Z,10.93
2019-02-02T15:08:58.895Z,11.00
2019-02-02T15:11:30.831Z,10.27
2019-02-02T15:14:02.647Z,9.93
2019-02-02T15:16:34.487Z,9.00
2019-02-02T15:19:06.514Z,9.77
2019-02-02T15:21:38.408Z,9.07
2019-02-02T15:24:11.365Z,9.00
2019-02-02T15:26:43.529Z,9.83
2019-02-02T15:29:15.280Z,10.43
2019-02-02T15:31:47.511Z,10.07
2019-02-02T15:34:19.367Z,10.53
2019-02-02T15:36:51.295Z,10.47
2019-02-02T15:39:23.494Z,12.57
2019-02-02T15:41:55.276Z,11.23
2019-02-02T15:44:27.113Z,12.23
2019-02-02T15:46:59.607Z,12.45
2019-02-02T15:49:31.466Z,12.07
2019-02-02T15:52:03.713Z,11.80
2019-02-02T15:54:35.617Z,14.00
2019-02-02T15:57:07.755Z,12.93
2019-02-02T15:59:40.215Z,11.90
2019-02-02T16:02:12.117Z,12.33
2019-02-02T16:04:44.037Z,10.28
2019-02-02T16:07:16.198Z,10.78
2019-02-02T16:09:48.452Z,9.60
2019-02-02T16:12:20.513Z,11.38
2019-02-02T16:14:52.696Z,10.93
2019-02-02T16:17:24.591Z,11.67
2019-02-02T16:19:56.832Z,15.30
2019-02-02T16:22:28.602Z,18.60
2019-02-02T16:25:00.953Z,17.03
2019-02-02T16:27:33.157Z,16.60
2019-02-02T16:30:07.341Z,14.10
2019-02-02T16:32:39.384Z,13.43
2019-02-02T16:35:12.713Z,14.35
2019-02-02T16:37:45.589Z,18.57
2019-02-02T16:40:21.685Z,15.13
2019-02-02T16:42:54.156Z,12.47
2019-02-02T16:45:30.992Z,13.75
2019-02-02T16:48:03.335Z,14.17
2019-02-02T16:50:36.305Z,13.15
2019-02-02T16:53:08.234Z,12.00
2019-02-02T16:55:40.617Z,12.00
2019-02-02T16:58:12.982Z,24.07
2019-02-02T17:00:45.259Z,24.63
2019-02-02T17:03:17.438Z,18.25
2019-02-02T17:05:49.687Z,19.13
2019-02-02T17:08:21.828Z,16.60
2019-02-02T17:10:54.415Z,15.13
2019-02-02T17:13:26.714Z,12.65
2019-02-02T17:15:58.810Z,10.43
2019-02-02T17:18:30.973Z,10.67
2019-02-02T17:21:03.554Z,11.77
2019-02-02T17:23:36.140Z,10.83
2019-02-02T17:26:09.667Z,10.47
2019-02-02T17:28:42.010Z,11.37
2019-02-02T17:31:14.013Z,11.90
2019-02-02T17:33:47.223Z,12.30
2019-02-02T17:36:19.344Z,10.70
2019-02-02T17:38:51.334Z,11.87
2019-02-02T17:41:23.257Z,11.93
2019-02-02T17:43:55.176Z,12.47
2019-02-02T17:46:28.011Z,11.03
2019-02-02T17:49:00.114Z,11.73
2019-02-02T17:51:32.524Z,10.37
2019-02-02T17:54:04.852Z,11.10
2019-02-02T17:56:36.823Z,10.87
2019-02-02T17:59:08.899Z,11.17
2019-02-02T18:01:41.294Z,11.47
2019-02-02T18:04:13.282Z,12.00
2019-02-02T18:06:45.326Z,11.50
2019-02-02T18:09:17.842Z,13.83
2019-02-02T18:11:49.950Z,12.43
2019-02-02T18:14:22.116Z,13.50
2019-02-02T18:16:54.140Z,12.77
2019-02-02T18:19:26.218Z,13.75
2019-02-02T18:21:59.334Z,12.93
2019-02-02T18:24:33.655Z,13.07
2019-02-02T18:27:06.297Z,13.33
2019-02-02T18:29:40.164Z,13.73
2019-02-02T18:32:15.175Z,16.57
2019-02-02T18:34:51.168Z,25.43
2019-02-02T18:37:22.354Z,35.00
2019-02-02T18:39:54.439Z,28.67
2019-02-02T18:42:27.782Z,24.07
2019-02-02T18:45:01.123Z,13.57
2019-02-02T18:47:33.304Z,12.73
2019-02-02T18:50:07.733Z,13.43
2019-02-02T18:52:39.684Z,12.80
2019-02-02T18:55:19.374Z,11.77
2019-02-02T18:57:52.064Z,12.80
2019-02-02T19:00:27.227Z,11.83
2019-02-02T19:03:01.794Z,15.03
2019-02-02T19:05:36.410Z,20.10
2019-02-02T19:08:11.017Z,27.67
2019-02-02T19:10:45.246Z,20.37
2019-02-02T19:13:17.996Z,20.08
2019-02-02T19:15:51.990Z,17.70
2019-02-02T19:18:27.028Z,17.07
2019-02-02T19:21:00.771Z,17.97
2019-02-02T19:23:34.864Z,17.47
2019-02-02T19:26:09.521Z,15.87
2019-02-02T19:28:43.413Z,15.30
2019-02-02T19:31:19.695Z,15.33
2019-02-02T19:33:54.766Z,15.90
2019-02-02T19:36:29.340Z,14.33
2019-02-02T19:39:05.581Z,16.20
2019-02-02T19:41:42.629Z,15.53
2019-02-02T19:44:19.585Z,16.53
2019-02-02T19:46:55.004Z,17.87
2019-02-02T19:49:31.607Z,22.17
2019-02-02T19:52:07.518Z,25.95
2019-02-02T19:54:43.668Z,20.73
2019-02-02T19:57:20.771Z,18.13
2019-02-02T19:59:57.454Z,15.03
2019-02-02T20:02:33.184Z,14.45
2019-02-02T20:05:09.407Z,14.17
2019-02-02T20:07:47.971Z,14.10
2019-02-02T20:10:24.218Z,15.17
2019-02-02T20:13:01.452Z,15.37
2019-02-02T20:15:38.288Z,15.70
2019-02-02T20:18:15.590Z,15.33
2019-02-02T20:20:52.691Z,16.57
2019-02-02T20:23:29.639Z,15.48
2019-02-02T20:26:06.051Z,15.63
2019-02-02T20:28:46.683Z,15.40
2019-02-02T20:31:23.260Z,18.82
2019-02-02T20:33:59.396Z,18.73
2019-02-02T20:36:35.511Z,18.07
2019-02-02T20:39:13.843Z,17.00
2019-02-02T20:41:50.163Z,18.23
2019-02-02T20:44:26.167Z,18.12
2019-02-02T20:47:03.186Z,17.30
2019-02-02T20:49:38.537Z,14.60
2019-02-02T20:52:15.841Z,14.25
2019-02-02T20:54:52.305Z,15.57
2019-02-02T20:57:47.392Z,15.73
2019-02-02T21:00:25.783Z,15.03
2019-02-02T21:03:01.506Z,14.93
2019-02-02T21:05:37.450Z,17.50
2019-02-02T21:08:11.999Z,16.03
2019-02-02T21:10:46.277Z,15.57
2019-02-02T21:13:21.169Z,14.63
2019-02-02T21:15:56.114Z,15.70
2019-02-02T21:18:32.367Z,16.80
2019-02-02T21:21:07.950Z,14.70
2019-02-02T21:23:42.354Z,17.30
2019-02-02T21:26:16.546Z,15.90
2019-02-02T21:28:51.478Z,15.83
2019-02-02T21:31:26.348Z,16.12
2019-02-02T21:34:00.595Z,16.27
2019-02-02T21:36:36.607Z,17.10
2019-02-02T21:39:10.340Z,18.20
2019-02-02T21:41:45.407Z,16.70
2019-02-02T21:44:19.929Z,18.52
2019-02-02T21:46:54.267Z,18.13
2019-02-02T21:49:28.197Z,16.87
2019-02-02T21:52:02.439Z,18.07
2019-02-02T21:54:36.807Z,18.00
2019-02-02T21:57:09.671Z,17.57
2019-02-02T21:59:42.493Z,18.50
2019-02-02T22:02:14.825Z,19.63
2019-02-02T22:04:48.892Z,18.03
2019-02-02T22:07:21.800Z,18.77
2019-02-02T22:09:54.104Z,16.90
2019-02-02T22:12:26.481Z,18.95
2019-02-02T22:14:59.442Z,16.93
2019-02-02T22:17:31.829Z,17.77
2019-02-02T22:20:04.469Z,18.13
2019-02-02T22:22:36.901Z,16.50
2019-02-02T22:25:17.766Z,17.77
2019-02-02T22:27:50.468Z,15.97
2019-02-02T22:30:33.967Z,16.23
2019-02-02T22:33:06.284Z,16.10
2019-02-02T22:35:38.035Z,16.40
2019-02-02T22:38:09.930Z,17.90
2019-02-02T22:40:42.103Z,17.50
2019-02-02T22:43:13.905Z,18.87
2019-02-02T22:45:45.646Z,18.20
2019-02-02T22:48:17.720Z,19.15
2019-02-02T22:50:55.374Z,18.07
2019-02-02T22:53:27.200Z,15.55
2019-02-02T22:55:58.936Z,19.00
2019-02-02T22:58:31.031Z,19.57
2019-02-02T23:01:41.141Z,19.93
2019-02-02T23:05:00.348Z,18.50
2019-02-02T23:08:22.189Z,17.53
2019-02-02T23:11:30.281Z,17.37
2019-02-02T23:14:58.134Z,19.03
2019-02-02T23:17:29.953Z,19.92
2019-02-02T23:20:01.980Z,21.33
2019-02-02T23:22:34.777Z,21.37
2019-02-02T23:25:07.287Z,21.37
2019-02-02T23:27:39.109Z,22.17
2019-02-02T23:30:13.384Z,20.57
2019-02-02T23:32:45.196Z,20.90
2019-02-02T23:35:17.085Z,20.55
2019-02-02T23:37:49.149Z,23.47
2019-02-02T23:40:20.968Z,23.23
2019-02-02T23:42:53.168Z,22.77
2019-02-02T23:45:25.052Z,19.97
2019-02-02T23:47:56.858Z,21.13
2019-02-02T23:50:28.760Z,20.85
2019-02-02T23:53:00.654Z,18.70
2019-02-02T23:55:32.537Z,20.48
2019-02-02T23:58:04.495Z,22.90
